sensor_id;sensor_type;location;lat;lon;timestamp;P1;durP1;ratioP1;P2;durP2;ratioP2
47715;SDS011;33476;50.984;3.538;2023-09-30T00:01:45;7.97;;;2.70;;
47715;SDS011;33476;50.984;3.538;2023-09-30T00:04:10;10.50;;;2.72;;
47715;SDS011;33476;50.984;3.538;2023-09-30T00:06:36;9.95;;;3.22;;
47715;SDS011;33476;50.984;3.538;2023-09-30T00:09:01;7.28;;;2.25;;
47715;SDS011;33476;50.984;3.538;2023-09-30T00:11:27;9.15;;;2.42;;
47715;SDS011;33476;50.984;3.538;2023-09-30T00:13:52;11.18;;;2.22;;
47715;SDS011;33476;50.984;3.538;2023-09-30T00:16:18;9.52;;;3.00;;
47715;SDS011;33476;50.984;3.538;2023-09-30T00:18:44;9.15;;;2.38;;
47715;SDS011;33476;50.984;3.538;2023-09-30T00:21:09;12.73;;;2.45;;
47715;SDS011;33476;50.984;3.538;2023-09-30T00:23:35;13.73;;;2.53;;
47715;SDS011;33476;50.984;3.538;2023-09-30T00:26:00;11.15;;;2.72;;
47715;SDS011;33476;50.984;3.538;2023-09-30T00:28:26;9.25;;;2.00;;
47715;SDS011;33476;50.984;3.538;2023-09-30T00:30:51;14.00;;;2.83;;
47715;SDS011;33476;50.984;3.538;2023-09-30T00:33:17;8.65;;;2.65;;
47715;SDS011;33476;50.984;3.538;2023-09-30T00:35:43;9.32;;;2.65;;
47715;SDS011;33476;50.984;3.538;2023-09-30T00:38:08;8.38;;;2.17;;
47715;SDS011;33476;50.984;3.538;2023-09-30T00:40:35;7.28;;;1.92;;
47715;SDS011;33476;50.984;3.538;2023-09-30T00:43:01;9.93;;;2.50;;
47715;SDS011;33476;50.984;3.538;2023-09-30T00:45:26;9.68;;;2.40;;
47715;SDS011;33476;50.984;3.538;2023-09-30T00:47:52;13.23;;;2.90;;
47715;SDS011;33476;50.984;3.538;2023-09-30T00:50:19;12.27;;;2.75;;
47715;SDS011;33476;50.984;3.538;2023-09-30T00:52:46;11.65;;;2.22;;
47715;SDS011;33476;50.984;3.538;2023-09-30T00:55:13;10.18;;;2.75;;
47715;SDS011;33476;50.984;3.538;2023-09-30T00:57:40;8.90;;;2.88;;
47715;SDS011;33476;50.984;3.538;2023-09-30T01:00:06;12.25;;;3.47;;
47715;SDS011;33476;50.984;3.538;2023-09-30T01:02:32;15.25;;;3.30;;
47715;SDS011;33476;50.984;3.538;2023-09-30T01:04:59;9.23;;;3.33;;
47715;SDS011;33476;50.984;3.538;2023-09-30T01:07:26;9.35;;;3.00;;
47715;SDS011;33476;50.984;3.538;2023-09-30T01:09:51;12.73;;;3.20;;
47715;SDS011;33476;50.984;3.538;2023-09-30T01:12:17;9.25;;;2.65;;
47715;SDS011;33476;50.984;3.538;2023-09-30T01:14:42;14.25;;;3.53;;
47715;SDS011;33476;50.984;3.538;2023-09-30T01:17:08;11.55;;;2.80;;
47715;SDS011;33476;50.984;3.538;2023-09-30T01:19:33;13.07;;;3.10;;
47715;SDS011;33476;50.984;3.538;2023-09-30T01:21:59;7.82;;;2.40;;
47715;SDS011;33476;50.984;3.538;2023-09-30T01:24:46;14.02;;;3.05;;
47715;SDS011;33476;50.984;3.538;2023-09-30T01:27:12;11.05;;;3.15;;
47715;SDS011;33476;50.984;3.538;2023-09-30T01:29:38;15.27;;;3.67;;
47715;SDS011;33476;50.984;3.538;2023-09-30T01:32:06;12.00;;;3.15;;
47715;SDS011;33476;50.984;3.538;2023-09-30T01:34:34;8.77;;;3.42;;
47715;SDS011;33476;50.984;3.538;2023-09-30T01:37:00;9.88;;;2.45;;
47715;SDS011;33476;50.984;3.538;2023-09-30T01:39:26;12.52;;;3.50;;
47715;SDS011;33476;50.984;3.538;2023-09-30T01:41:51;10.20;;;2.97;;
47715;SDS011;33476;50.984;3.538;2023-09-30T01:44:17;11.55;;;2.53;;
47715;SDS011;33476;50.984;3.538;2023-09-30T01:46:42;10.30;;;2.92;;
47715;SDS011;33476;50.984;3.538;2023-09-30T01:49:08;6.82;;;2.25;;
47715;SDS011;33476;50.984;3.538;2023-09-30T01:51:33;14.10;;;3.17;;
47715;SDS011;33476;50.984;3.538;2023-09-30T01:53:59;16.08;;;3.47;;
47715;SDS011;33476;50.984;3.538;2023-09-30T01:56:24;10.07;;;3.25;;
47715;SDS011;33476;50.984;3.538;2023-09-30T01:58:50;18.80;;;3.55;;
47715;SDS011;33476;50.984;3.538;2023-09-30T02:01:15;9.82;;;2.92;;
47715;SDS011;33476;50.984;3.538;2023-09-30T02:03:41;11.55;;;3.42;;
47715;SDS011;33476;50.984;3.538;2023-09-30T02:06:06;9.23;;;3.03;;
47715;SDS011;33476;50.984;3.538;2023-09-30T02:08:32;12.00;;;3.22;;
47715;SDS011;33476;50.984;3.538;2023-09-30T02:10:58;9.38;;;3.40;;
47715;SDS011;33476;50.984;3.538;2023-09-30T02:13:23;7.30;;;2.20;;
47715;SDS011;33476;50.984;3.538;2023-09-30T02:15:49;8.23;;;3.05;;
47715;SDS011;33476;50.984;3.538;2023-09-30T02:18:14;8.20;;;2.35;;
47715;SDS011;33476;50.984;3.538;2023-09-30T02:20:40;9.05;;;3.03;;
47715;SDS011;33476;50.984;3.538;2023-09-30T02:23:08;9.45;;;2.55;;
47715;SDS011;33476;50.984;3.538;2023-09-30T02:25:36;9.32;;;2.50;;
47715;SDS011;33476;50.984;3.538;2023-09-30T02:28:04;10.38;;;3.00;;
47715;SDS011;33476;50.984;3.538;2023-09-30T02:30:31;9.60;;;2.80;;
47715;SDS011;33476;50.984;3.538;2023-09-30T02:32:57;10.00;;;2.47;;
47715;SDS011;33476;50.984;3.538;2023-09-30T02:35:22;15.00;;;3.50;;
47715;SDS011;33476;50.984;3.538;2023-09-30T02:37:48;8.95;;;3.05;;
47715;SDS011;33476;50.984;3.538;2023-09-30T02:40:16;8.75;;;3.13;;
47715;SDS011;33476;50.984;3.538;2023-09-30T02:42:42;8.20;;;2.45;;
47715;SDS011;33476;50.984;3.538;2023-09-30T02:45:08;11.88;;;3.05;;
47715;SDS011;33476;50.984;3.538;2023-09-30T02:47:35;10.63;;;2.90;;
47715;SDS011;33476;50.984;3.538;2023-09-30T02:50:02;13.60;;;3.60;;
47715;SDS011;33476;50.984;3.538;2023-09-30T02:52:29;8.25;;;2.90;;
47715;SDS011;33476;50.984;3.538;2023-09-30T02:54:55;13.48;;;3.38;;
47715;SDS011;33476;50.984;3.538;2023-09-30T02:57:22;12.43;;;3.10;;
47715;SDS011;33476;50.984;3.538;2023-09-30T02:59:48;12.88;;;3.70;;
47715;SDS011;33476;50.984;3.538;2023-09-30T03:02:13;15.73;;;4.00;;
47715;SDS011;33476;50.984;3.538;2023-09-30T03:04:40;12.35;;;3.42;;
47715;SDS011;33476;50.984;3.538;2023-09-30T03:07:06;12.85;;;2.58;;
47715;SDS011;33476;50.984;3.538;2023-09-30T03:09:32;10.07;;;2.83;;
47715;SDS011;33476;50.984;3.538;2023-09-30T03:11:57;14.02;;;3.55;;
47715;SDS011;33476;50.984;3.538;2023-09-30T03:14:24;17.63;;;4.18;;
47715;SDS011;33476;50.984;3.538;2023-09-30T03:16:50;11.93;;;3.90;;
47715;SDS011;33476;50.984;3.538;2023-09-30T03:19:15;12.48;;;3.17;;
47715;SDS011;33476;50.984;3.538;2023-09-30T03:21:41;16.83;;;3.53;;
47715;SDS011;33476;50.984;3.538;2023-09-30T03:24:07;12.52;;;2.90;;
47715;SDS011;33476;50.984;3.538;2023-09-30T03:26:33;9.95;;;2.67;;
47715;SDS011;33476;50.984;3.538;2023-09-30T03:28:59;13.27;;;3.35;;
47715;SDS011;33476;50.984;3.538;2023-09-30T03:31:24;13.23;;;3.40;;
47715;SDS011;33476;50.984;3.538;2023-09-30T03:33:50;11.85;;;3.97;;
47715;SDS011;33476;50.984;3.538;2023-09-30T03:36:19;14.00;;;3.60;;
47715;SDS011;33476;50.984;3.538;2023-09-30T03:38:45;11.00;;;2.92;;
47715;SDS011;33476;50.984;3.538;2023-09-30T03:41:10;10.63;;;2.95;;
47715;SDS011;33476;50.984;3.538;2023-09-30T03:43:38;14.05;;;3.60;;
47715;SDS011;33476;50.984;3.538;2023-09-30T03:46:07;15.85;;;3.65;;
47715;SDS011;33476;50.984;3.538;2023-09-30T03:48:33;12.57;;;3.55;;
47715;SDS011;33476;50.984;3.538;2023-09-30T03:53:38;10.45;;;3.00;;
47715;SDS011;33476;50.984;3.538;2023-09-30T03:56:04;10.70;;;2.90;;
47715;SDS011;33476;50.984;3.538;2023-09-30T03:58:30;14.40;;;3.92;;
47715;SDS011;33476;50.984;3.538;2023-09-30T04:00:55;14.98;;;3.47;;
47715;SDS011;33476;50.984;3.538;2023-09-30T04:03:21;11.55;;;3.88;;
47715;SDS011;33476;50.984;3.538;2023-09-30T04:05:46;9.25;;;3.47;;
47715;SDS011;33476;50.984;3.538;2023-09-30T04:08:12;7.30;;;3.15;;
47715;SDS011;33476;50.984;3.538;2023-09-30T04:10:40;13.00;;;3.22;;
47715;SDS011;33476;50.984;3.538;2023-09-30T04:13:05;7.97;;;3.63;;
47715;SDS011;33476;50.984;3.538;2023-09-30T04:15:30;9.25;;;3.22;;
47715;SDS011;33476;50.984;3.538;2023-09-30T04:17:56;13.35;;;3.40;;
47715;SDS011;33476;50.984;3.538;2023-09-30T04:20:21;12.07;;;3.40;;
47715;SDS011;33476;50.984;3.538;2023-09-30T04:22:48;11.52;;;3.85;;
47715;SDS011;33476;50.984;3.538;2023-09-30T04:25:15;14.23;;;3.65;;
47715;SDS011;33476;50.984;3.538;2023-09-30T04:27:42;13.95;;;3.72;;
47715;SDS011;33476;50.984;3.538;2023-09-30T04:30:07;14.73;;;3.83;;
47715;SDS011;33476;50.984;3.538;2023-09-30T04:32:34;12.07;;;3.70;;
47715;SDS011;33476;50.984;3.538;2023-09-30T04:35:02;12.32;;;3.63;;
47715;SDS011;33476;50.984;3.538;2023-09-30T04:37:30;12.30;;;3.50;;
47715;SDS011;33476;50.984;3.538;2023-09-30T04:39:55;13.77;;;3.67;;
47715;SDS011;33476;50.984;3.538;2023-09-30T04:42:22;13.20;;;3.70;;
47715;SDS011;33476;50.984;3.538;2023-09-30T04:44:50;15.13;;;4.28;;
47715;SDS011;33476;50.984;3.538;2023-09-30T04:47:15;11.43;;;3.97;;
47715;SDS011;33476;50.984;3.538;2023-09-30T04:49:41;16.23;;;4.47;;
47715;SDS011;33476;50.984;3.538;2023-09-30T04:52:08;12.77;;;4.15;;
47715;SDS011;33476;50.984;3.538;2023-09-30T04:54:34;14.43;;;4.28;;
47715;SDS011;33476;50.984;3.538;2023-09-30T04:57:00;12.35;;;3.50;;
47715;SDS011;33476;50.984;3.538;2023-09-30T04:59:27;16.45;;;4.72;;
47715;SDS011;33476;50.984;3.538;2023-09-30T05:01:53;16.05;;;4.30;;
47715;SDS011;33476;50.984;3.538;2023-09-30T05:04:19;14.05;;;4.15;;
47715;SDS011;33476;50.984;3.538;2023-09-30T05:06:45;20.48;;;4.10;;
47715;SDS011;33476;50.984;3.538;2023-09-30T05:09:10;15.02;;;4.57;;
47715;SDS011;33476;50.984;3.538;2023-09-30T05:11:37;15.15;;;4.07;;
47715;SDS011;33476;50.984;3.538;2023-09-30T05:14:03;12.85;;;4.25;;
47715;SDS011;33476;50.984;3.538;2023-09-30T05:16:30;11.73;;;3.97;;
47715;SDS011;33476;50.984;3.538;2023-09-30T05:18:56;13.65;;;4.63;;
47715;SDS011;33476;50.984;3.538;2023-09-30T05:21:22;16.40;;;4.55;;
47715;SDS011;33476;50.984;3.538;2023-09-30T05:23:47;14.02;;;4.30;;
47715;SDS011;33476;50.984;3.538;2023-09-30T05:26:12;13.77;;;4.45;;
47715;SDS011;33476;50.984;3.538;2023-09-30T05:28:38;12.15;;;4.40;;
47715;SDS011;33476;50.984;3.538;2023-09-30T05:31:04;9.45;;;3.60;;
47715;SDS011;33476;50.984;3.538;2023-09-30T05:33:30;11.93;;;3.72;;
47715;SDS011;33476;50.984;3.538;2023-09-30T05:35:55;13.15;;;4.40;;
47715;SDS011;33476;50.984;3.538;2023-09-30T05:38:21;12.80;;;3.83;;
47715;SDS011;33476;50.984;3.538;2023-09-30T05:40:48;10.00;;;3.60;;
47715;SDS011;33476;50.984;3.538;2023-09-30T05:43:14;12.02;;;3.38;;
47715;SDS011;33476;50.984;3.538;2023-09-30T05:45:39;10.15;;;3.78;;
47715;SDS011;33476;50.984;3.538;2023-09-30T05:48:14;13.68;;;3.40;;
47715;SDS011;33476;50.984;3.538;2023-09-30T05:50:39;14.20;;;4.38;;
47715;SDS011;33476;50.984;3.538;2023-09-30T05:53:05;16.35;;;3.80;;
47715;SDS011;33476;50.984;3.538;2023-09-30T05:55:30;20.38;;;3.92;;
47715;SDS011;33476;50.984;3.538;2023-09-30T05:57:55;15.50;;;4.20;;
47715;SDS011;33476;50.984;3.538;2023-09-30T06:00:21;13.75;;;3.70;;
47715;SDS011;33476;50.984;3.538;2023-09-30T06:02:56;17.90;;;4.65;;
47715;SDS011;33476;50.984;3.538;2023-09-30T06:05:22;13.88;;;3.88;;
47715;SDS011;33476;50.984;3.538;2023-09-30T06:07:48;15.77;;;4.30;;
47715;SDS011;33476;50.984;3.538;2023-09-30T06:10:14;12.68;;;3.40;;
47715;SDS011;33476;50.984;3.538;2023-09-30T06:12:43;10.75;;;3.50;;
47715;SDS011;33476;50.984;3.538;2023-09-30T06:15:19;15.85;;;4.47;;
47715;SDS011;33476;50.984;3.538;2023-09-30T06:17:47;18.40;;;3.80;;
47715;SDS011;33476;50.984;3.538;2023-09-30T06:20:14;15.88;;;3.13;;
47715;SDS011;33476;50.984;3.538;2023-09-30T06:22:43;30.58;;;4.63;;
47715;SDS011;33476;50.984;3.538;2023-09-30T06:25:14;21.70;;;4.07;;
47715;SDS011;33476;50.984;3.538;2023-09-30T06:27:41;21.60;;;4.50;;
47715;SDS011;33476;50.984;3.538;2023-09-30T06:30:10;26.77;;;5.18;;
47715;SDS011;33476;50.984;3.538;2023-09-30T06:32:37;28.73;;;6.25;;
47715;SDS011;33476;50.984;3.538;2023-09-30T06:35:02;28.52;;;6.45;;
47715;SDS011;33476;50.984;3.538;2023-09-30T06:37:29;28.75;;;6.10;;
47715;SDS011;33476;50.984;3.538;2023-09-30T06:39:57;33.78;;;5.93;;
47715;SDS011;33476;50.984;3.538;2023-09-30T06:42:22;30.17;;;6.40;;
47715;SDS011;33476;50.984;3.538;2023-09-30T06:44:49;31.25;;;7.18;;
47715;SDS011;33476;50.984;3.538;2023-09-30T06:47:14;18.70;;;5.18;;
47715;SDS011;33476;50.984;3.538;2023-09-30T06:49:40;20.40;;;5.43;;
47715;SDS011;33476;50.984;3.538;2023-09-30T06:52:05;16.33;;;5.45;;
47715;SDS011;33476;50.984;3.538;2023-09-30T06:54:31;15.90;;;5.05;;
47715;SDS011;33476;50.984;3.538;2023-09-30T06:56:56;21.88;;;5.45;;
47715;SDS011;33476;50.984;3.538;2023-09-30T06:59:22;18.90;;;5.32;;
47715;SDS011;33476;50.984;3.538;2023-09-30T07:01:47;19.85;;;5.32;;
47715;SDS011;33476;50.984;3.538;2023-09-30T07:04:12;15.55;;;4.45;;
47715;SDS011;33476;50.984;3.538;2023-09-30T07:06:38;14.32;;;5.38;;
47715;SDS011;33476;50.984;3.538;2023-09-30T07:09:03;16.10;;;4.75;;
47715;SDS011;33476;50.984;3.538;2023-09-30T07:11:30;14.20;;;4.10;;
47715;SDS011;33476;50.984;3.538;2023-09-30T07:13:58;17.15;;;5.45;;
47715;SDS011;33476;50.984;3.538;2023-09-30T07:16:24;15.48;;;4.60;;
47715;SDS011;33476;50.984;3.538;2023-09-30T07:18:49;12.43;;;3.75;;
47715;SDS011;33476;50.984;3.538;2023-09-30T07:21:15;14.10;;;4.63;;
47715;SDS011;33476;50.984;3.538;2023-09-30T07:23:41;16.27;;;3.80;;
47715;SDS011;33476;50.984;3.538;2023-09-30T07:26:06;15.57;;;3.00;;
47715;SDS011;33476;50.984;3.538;2023-09-30T07:28:32;17.02;;;3.78;;
47715;SDS011;33476;50.984;3.538;2023-09-30T07:30:58;14.88;;;2.88;;
47715;SDS011;33476;50.984;3.538;2023-09-30T07:33:23;13.77;;;2.38;;
47715;SDS011;33476;50.984;3.538;2023-09-30T07:35:49;21.35;;;3.25;;
47715;SDS011;33476;50.984;3.538;2023-09-30T07:38:14;10.48;;;2.10;;
47715;SDS011;33476;50.984;3.538;2023-09-30T07:40:40;12.23;;;2.33;;
47715;SDS011;33476;50.984;3.538;2023-09-30T07:43:06;18.60;;;2.78;;
47715;SDS011;33476;50.984;3.538;2023-09-30T07:45:31;21.92;;;3.45;;
47715;SDS011;33476;50.984;3.538;2023-09-30T07:47:57;11.55;;;2.30;;
47715;SDS011;33476;50.984;3.538;2023-09-30T07:50:23;18.30;;;2.28;;
47715;SDS011;33476;50.984;3.538;2023-09-30T07:52:49;12.38;;;2.03;;
47715;SDS011;33476;50.984;3.538;2023-09-30T07:55:15;12.32;;;2.28;;
47715;SDS011;33476;50.984;3.538;2023-09-30T07:57:41;9.27;;;2.03;;
47715;SDS011;33476;50.984;3.538;2023-09-30T08:00:08;14.85;;;2.50;;
47715;SDS011;33476;50.984;3.538;2023-09-30T08:02:34;16.13;;;2.67;;
47715;SDS011;33476;50.984;3.538;2023-09-30T08:05:01;14.50;;;2.30;;
47715;SDS011;33476;50.984;3.538;2023-09-30T08:07:27;11.40;;;1.83;;
47715;SDS011;33476;50.984;3.538;2023-09-30T08:09:52;11.90;;;2.17;;
47715;SDS011;33476;50.984;3.538;2023-09-30T08:12:17;18.92;;;2.50;;
47715;SDS011;33476;50.984;3.538;2023-09-30T08:14:43;16.08;;;2.85;;
47715;SDS011;33476;50.984;3.538;2023-09-30T08:17:11;9.48;;;2.60;;
47715;SDS011;33476;50.984;3.538;2023-09-30T08:19:37;13.82;;;2.25;;
47715;SDS011;33476;50.984;3.538;2023-09-30T08:22:02;15.88;;;2.22;;
47715;SDS011;33476;50.984;3.538;2023-09-30T08:24:31;21.15;;;2.20;;
47715;SDS011;33476;50.984;3.538;2023-09-30T08:26:57;13.13;;;2.45;;
47715;SDS011;33476;50.984;3.538;2023-09-30T08:29:22;13.77;;;2.45;;
47715;SDS011;33476;50.984;3.538;2023-09-30T08:31:47;13.73;;;2.22;;
47715;SDS011;33476;50.984;3.538;2023-09-30T08:34:15;10.05;;;2.30;;
47715;SDS011;33476;50.984;3.538;2023-09-30T08:36:42;13.57;;;2.97;;
47715;SDS011;33476;50.984;3.538;2023-09-30T08:39:07;19.85;;;2.53;;
47715;SDS011;33476;50.984;3.538;2023-09-30T08:41:33;18.60;;;3.03;;
47715;SDS011;33476;50.984;3.538;2023-09-30T08:44:00;23.85;;;3.30;;
47715;SDS011;33476;50.984;3.538;2023-09-30T08:46:32;15.95;;;2.90;;
47715;SDS011;33476;50.984;3.538;2023-09-30T08:49:00;12.73;;;2.10;;
47715;SDS011;33476;50.984;3.538;2023-09-30T08:51:27;15.25;;;2.75;;
47715;SDS011;33476;50.984;3.538;2023-09-30T08:53:54;14.80;;;2.75;;
47715;SDS011;33476;50.984;3.538;2023-09-30T08:56:23;10.57;;;2.25;;
47715;SDS011;33476;50.984;3.538;2023-09-30T08:58:57;14.52;;;2.35;;
47715;SDS011;33476;50.984;3.538;2023-09-30T09:01:24;15.80;;;3.00;;
47715;SDS011;33476;50.984;3.538;2023-09-30T09:03:51;10.07;;;2.25;;
47715;SDS011;33476;50.984;3.538;2023-09-30T09:06:21;13.30;;;2.42;;
47715;SDS011;33476;50.984;3.538;2023-09-30T09:08:47;10.43;;;2.45;;
47715;SDS011;33476;50.984;3.538;2023-09-30T09:11:12;14.35;;;2.15;;
47715;SDS011;33476;50.984;3.538;2023-09-30T09:14:00;15.40;;;2.92;;
47715;SDS011;33476;50.984;3.538;2023-09-30T09:16:25;14.52;;;2.47;;
47715;SDS011;33476;50.984;3.538;2023-09-30T09:18:51;14.82;;;2.72;;
47715;SDS011;33476;50.984;3.538;2023-09-30T09:21:17;18.75;;;3.30;;
47715;SDS011;33476;50.984;3.538;2023-09-30T09:23:49;15.30;;;2.85;;
47715;SDS011;33476;50.984;3.538;2023-09-30T09:28:56;14.20;;;3.00;;
47715;SDS011;33476;50.984;3.538;2023-09-30T09:31:26;16.67;;;3.22;;
47715;SDS011;33476;50.984;3.538;2023-09-30T09:33:52;13.98;;;2.72;;
47715;SDS011;33476;50.984;3.538;2023-09-30T09:36:18;15.65;;;2.95;;
47715;SDS011;33476;50.984;3.538;2023-09-30T09:38:50;21.38;;;2.72;;
47715;SDS011;33476;50.984;3.538;2023-09-30T09:41:19;16.08;;;2.72;;
47715;SDS011;33476;50.984;3.538;2023-09-30T09:43:48;25.83;;;3.45;;
47715;SDS011;33476;50.984;3.538;2023-09-30T09:46:15;14.68;;;3.25;;
47715;SDS011;33476;50.984;3.538;2023-09-30T09:48:42;20.00;;;3.80;;
47715;SDS011;33476;50.984;3.538;2023-09-30T09:51:11;13.80;;;2.72;;
47715;SDS011;33476;50.984;3.538;2023-09-30T09:53:37;14.70;;;3.72;;
47715;SDS011;33476;50.984;3.538;2023-09-30T09:56:07;15.10;;;3.45;;
47715;SDS011;33476;50.984;3.538;2023-09-30T09:58:35;22.30;;;4.07;;
47715;SDS011;33476;50.984;3.538;2023-09-30T10:01:02;20.25;;;4.03;;
47715;SDS011;33476;50.984;3.538;2023-09-30T10:03:28;18.20;;;4.38;;
47715;SDS011;33476;50.984;3.538;2023-09-30T10:05:53;16.52;;;3.70;;
47715;SDS011;33476;50.984;3.538;2023-09-30T10:08:20;17.52;;;3.78;;
47715;SDS011;33476;50.984;3.538;2023-09-30T10:10:52;15.82;;;3.30;;
47715;SDS011;33476;50.984;3.538;2023-09-30T10:19:16;17.17;;;2.95;;
47715;SDS011;33476;50.984;3.538;2023-09-30T10:24:47;10.88;;;2.65;;
47715;SDS011;33476;50.984;3.538;2023-09-30T10:35:18;12.55;;;2.22;;
47715;SDS011;33476;50.984;3.538;2023-09-30T10:38:38;11.68;;;2.55;;
47715;SDS011;33476;50.984;3.538;2023-09-30T10:41:02;13.20;;;2.63;;
47715;SDS011;33476;50.984;3.538;2023-09-30T10:43:28;13.23;;;2.60;;
47715;SDS011;33476;50.984;3.538;2023-09-30T10:46:29;16.25;;;2.67;;
47715;SDS011;33476;50.984;3.538;2023-09-30T10:48:52;16.40;;;2.60;;
47715;SDS011;33476;50.984;3.538;2023-09-30T10:51:18;11.07;;;2.33;;
47715;SDS011;33476;50.984;3.538;2023-09-30T10:53:48;13.13;;;2.07;;
47715;SDS011;33476;50.984;3.538;2023-09-30T10:56:16;14.30;;;2.22;;
47715;SDS011;33476;50.984;3.538;2023-09-30T10:58:44;14.32;;;2.97;;
47715;SDS011;33476;50.984;3.538;2023-09-30T11:01:10;14.25;;;2.53;;
47715;SDS011;33476;50.984;3.538;2023-09-30T11:03:36;14.23;;;2.22;;
47715;SDS011;33476;50.984;3.538;2023-09-30T11:06:02;10.35;;;2.00;;
47715;SDS011;33476;50.984;3.538;2023-09-30T11:08:29;10.25;;;1.80;;
47715;SDS011;33476;50.984;3.538;2023-09-30T11:10:55;14.27;;;2.05;;
47715;SDS011;33476;50.984;3.538;2023-09-30T11:13:21;13.73;;;1.77;;
47715;SDS011;33476;50.984;3.538;2023-09-30T11:15:47;17.30;;;2.33;;
47715;SDS011;33476;50.984;3.538;2023-09-30T11:18:13;12.95;;;2.15;;
47715;SDS011;33476;50.984;3.538;2023-09-30T11:20:40;11.10;;;1.85;;
47715;SDS011;33476;50.984;3.538;2023-09-30T11:23:06;8.48;;;1.52;;
47715;SDS011;33476;50.984;3.538;2023-09-30T11:25:35;8.77;;;1.23;;
47715;SDS011;33476;50.984;3.538;2023-09-30T11:30:56;11.80;;;1.73;;
47715;SDS011;33476;50.984;3.538;2023-09-30T11:33:22;9.63;;;1.30;;
47715;SDS011;33476;50.984;3.538;2023-09-30T11:35:55;11.05;;;1.70;;
47715;SDS011;33476;50.984;3.538;2023-09-30T11:38:31;10.85;;;1.23;;
47715;SDS011;33476;50.984;3.538;2023-09-30T11:41:06;10.18;;;1.10;;
47715;SDS011;33476;50.984;3.538;2023-09-30T11:43:32;5.60;;;1.05;;
47715;SDS011;33476;50.984;3.538;2023-09-30T11:46:09;9.63;;;1.25;;
47715;SDS011;33476;50.984;3.538;2023-09-30T11:48:36;11.38;;;1.33;;
47715;SDS011;33476;50.984;3.538;2023-09-30T11:51:02;6.90;;;1.10;;
47715;SDS011;33476;50.984;3.538;2023-09-30T11:53:31;10.10;;;1.13;;
47715;SDS011;33476;50.984;3.538;2023-09-30T11:56:00;7.95;;;1.33;;
47715;SDS011;33476;50.984;3.538;2023-09-30T11:58:27;9.50;;;1.38;;
47715;SDS011;33476;50.984;3.538;2023-09-30T12:00:57;8.10;;;1.05;;
47715;SDS011;33476;50.984;3.538;2023-09-30T12:03:24;3.70;;;0.80;;
47715;SDS011;33476;50.984;3.538;2023-09-30T12:05:52;9.05;;;0.95;;
47715;SDS011;33476;50.984;3.538;2023-09-30T12:08:20;7.55;;;0.90;;
47715;SDS011;33476;50.984;3.538;2023-09-30T12:10:48;9.38;;;1.27;;
47715;SDS011;33476;50.984;3.538;2023-09-30T12:13:14;6.85;;;1.27;;
47715;SDS011;33476;50.984;3.538;2023-09-30T12:15:40;8.02;;;0.95;;
47715;SDS011;33476;50.984;3.538;2023-09-30T12:18:06;7.93;;;1.13;;
47715;SDS011;33476;50.984;3.538;2023-09-30T12:20:31;6.30;;;0.95;;
47715;SDS011;33476;50.984;3.538;2023-09-30T12:22:58;7.28;;;0.88;;
47715;SDS011;33476;50.984;3.538;2023-09-30T12:25:24;7.15;;;1.38;;
47715;SDS011;33476;50.984;3.538;2023-09-30T12:27:50;8.05;;;1.33;;
47715;SDS011;33476;50.984;3.538;2023-09-30T12:30:16;8.38;;;1.10;;
47715;SDS011;33476;50.984;3.538;2023-09-30T12:32:45;7.20;;;1.25;;
47715;SDS011;33476;50.984;3.538;2023-09-30T12:35:10;7.07;;;0.80;;
47715;SDS011;33476;50.984;3.538;2023-09-30T12:37:37;5.95;;;1.02;;
47715;SDS011;33476;50.984;3.538;2023-09-30T12:40:04;7.35;;;1.20;;
47715;SDS011;33476;50.984;3.538;2023-09-30T12:42:32;8.20;;;1.30;;
47715;SDS011;33476;50.984;3.538;2023-09-30T12:45:00;10.10;;;0.90;;
47715;SDS011;33476;50.984;3.538;2023-09-30T12:47:25;6.72;;;1.30;;
47715;SDS011;33476;50.984;3.538;2023-09-30T12:49:51;7.95;;;0.95;;
47715;SDS011;33476;50.984;3.538;2023-09-30T12:52:17;6.95;;;0.98;;
47715;SDS011;33476;50.984;3.538;2023-09-30T12:54:42;10.43;;;1.05;;
47715;SDS011;33476;50.984;3.538;2023-09-30T12:57:08;6.70;;;0.80;;
47715;SDS011;33476;50.984;3.538;2023-09-30T12:59:33;6.22;;;0.95;;
47715;SDS011;33476;50.984;3.538;2023-09-30T13:01:59;7.70;;;0.93;;
47715;SDS011;33476;50.984;3.538;2023-09-30T13:04:24;7.63;;;1.08;;
47715;SDS011;33476;50.984;3.538;2023-09-30T13:06:51;10.23;;;1.38;;
47715;SDS011;33476;50.984;3.538;2023-09-30T13:09:17;9.52;;;1.20;;
47715;SDS011;33476;50.984;3.538;2023-09-30T13:11:44;7.25;;;0.85;;
47715;SDS011;33476;50.984;3.538;2023-09-30T13:14:10;6.90;;;0.68;;
47715;SDS011;33476;50.984;3.538;2023-09-30T13:16:36;9.65;;;1.10;;
47715;SDS011;33476;50.984;3.538;2023-09-30T13:19:02;11.10;;;0.88;;
47715;SDS011;33476;50.984;3.538;2023-09-30T13:21:28;7.60;;;1.10;;
47715;SDS011;33476;50.984;3.538;2023-09-30T13:23:53;7.47;;;1.05;;
47715;SDS011;33476;50.984;3.538;2023-09-30T13:26:19;9.02;;;1.23;;
47715;SDS011;33476;50.984;3.538;2023-09-30T13:28:44;7.93;;;0.88;;
47715;SDS011;33476;50.984;3.538;2023-09-30T13:31:10;11.35;;;1.95;;
47715;SDS011;33476;50.984;3.538;2023-09-30T13:33:35;8.30;;;1.15;;
47715;SDS011;33476;50.984;3.538;2023-09-30T13:36:00;6.47;;;0.70;;
47715;SDS011;33476;50.984;3.538;2023-09-30T13:38:27;6.88;;;1.15;;
47715;SDS011;33476;50.984;3.538;2023-09-30T13:40:53;11.32;;;1.27;;
47715;SDS011;33476;50.984;3.538;2023-09-30T13:43:18;7.45;;;0.90;;
47715;SDS011;33476;50.984;3.538;2023-09-30T13:45:44;5.90;;;0.88;;
47715;SDS011;33476;50.984;3.538;2023-09-30T13:48:09;9.35;;;1.02;;
47715;SDS011;33476;50.984;3.538;2023-09-30T13:50:36;9.02;;;1.00;;
47715;SDS011;33476;50.984;3.538;2023-09-30T13:53:02;7.88;;;0.77;;
47715;SDS011;33476;50.984;3.538;2023-09-30T13:55:27;6.38;;;1.25;;
47715;SDS011;33476;50.984;3.538;2023-09-30T13:57:53;7.82;;;1.10;;
47715;SDS011;33476;50.984;3.538;2023-09-30T14:00:18;8.00;;;1.02;;
47715;SDS011;33476;50.984;3.538;2023-09-30T14:02:44;8.82;;;1.13;;
47715;SDS011;33476;50.984;3.538;2023-09-30T14:05:09;8.73;;;1.10;;
47715;SDS011;33476;50.984;3.538;2023-09-30T14:07:35;8.13;;;1.25;;
47715;SDS011;33476;50.984;3.538;2023-09-30T14:10:02;5.15;;;1.00;;
47715;SDS011;33476;50.984;3.538;2023-09-30T14:12:29;7.28;;;1.40;;
47715;SDS011;33476;50.984;3.538;2023-09-30T14:14:54;8.88;;;1.10;;
47715;SDS011;33476;50.984;3.538;2023-09-30T14:17:20;5.97;;;0.90;;
47715;SDS011;33476;50.984;3.538;2023-09-30T14:19:45;6.20;;;0.77;;
47715;SDS011;33476;50.984;3.538;2023-09-30T14:22:11;5.25;;;0.80;;
47715;SDS011;33476;50.984;3.538;2023-09-30T14:24:37;7.22;;;0.80;;
47715;SDS011;33476;50.984;3.538;2023-09-30T14:27:03;8.25;;;1.25;;
47715;SDS011;33476;50.984;3.538;2023-09-30T14:29:30;10.57;;;0.82;;
47715;SDS011;33476;50.984;3.538;2023-09-30T14:31:56;8.38;;;1.13;;
47715;SDS011;33476;50.984;3.538;2023-09-30T14:34:22;12.20;;;1.45;;
47715;SDS011;33476;50.984;3.538;2023-09-30T14:36:48;6.32;;;0.98;;
47715;SDS011;33476;50.984;3.538;2023-09-30T14:39:14;6.72;;;0.70;;
47715;SDS011;33476;50.984;3.538;2023-09-30T14:41:41;5.13;;;0.63;;
47715;SDS011;33476;50.984;3.538;2023-09-30T14:44:07;6.57;;;1.00;;
47715;SDS011;33476;50.984;3.538;2023-09-30T14:46:36;10.55;;;1.13;;
47715;SDS011;33476;50.984;3.538;2023-09-30T14:49:02;5.97;;;0.90;;
47715;SDS011;33476;50.984;3.538;2023-09-30T14:51:28;16.23;;;1.48;;
47715;SDS011;33476;50.984;3.538;2023-09-30T14:53:53;6.97;;;0.75;;
47715;SDS011;33476;50.984;3.538;2023-09-30T14:56:18;9.50;;;1.10;;
47715;SDS011;33476;50.984;3.538;2023-09-30T14:58:44;8.43;;;0.70;;
47715;SDS011;33476;50.984;3.538;2023-09-30T15:01:10;9.05;;;1.30;;